F/V Moorea — FMIT — position and weather

sailwx.info

Track history (hours):
 
Tides and Currents Weather Stations Pressure Air Temp Water Temp Dewpoint Dewpoint Depression Visibility Wind Speed Wind Dir Waves Ship Positions

F/V Moorea

Last reported at 2016-Feb-09 20:10 UTC. Time now 2016-Feb-10 02:40 UTC.
Position N 47°18' W 002°31'.

Length 18 m.

Type: Fishing. MMSI: 228239900.

Date/timePositionNaut miles runAvg speedWind from/ knotsBaromVisibWave heightAir tempDewpointWater temp
2016-Feb-09 20:10N 47°18' W 002°31'0 0.0
2016-Feb-09 19:33N 47°18' W 002°31'0 0.0
2016-Feb-09 18:33N 47°18' W 002°31'0 0.0
2016-Feb-09 16:19N 47°18' W 002°31'0 0.0
2016-Feb-09 15:30N 47°18' W 002°31'0 0.0
2016-Feb-09 14:22N 47°18' W 002°31'  
2016-Feb-06 09:23N 47°18' W 002°31'0 0.0
2016-Feb-06 08:33N 47°18' W 002°31'0 0.0
2016-Feb-06 07:32N 47°18' W 002°31'0 0.0
2016-Feb-06 06:32N 47°18' W 002°31'0 0.0
2016-Feb-06 05:33N 47°18' W 002°31'0 0.0
2016-Feb-06 04:31N 47°18' W 002°31'0 0.0
2016-Feb-06 03:33N 47°18' W 002°31'0 0.0
2016-Feb-06 02:34N 47°18' W 002°31'0 0.4
2016-Feb-06 01:33N 47°18' W 002°31'7 7.0
2016-Feb-06 00:33N 47°12' W 002°35'7 0.2
2016-Feb-04 04:16N 47°06' W 002°40'7 9.5
2016-Feb-04 03:33N 47°12' W 002°37'7 6.9
2016-Feb-04 02:33N 47°18' W 002°31'0 0.0
2016-Feb-04 01:32N 47°18' W 002°31'4 3.6
2016-Feb-04 00:33N 47°19' W 002°36'11 0.2
2016-Feb-02 02:33N 47°09' W 002°44'9 9.3
2016-Feb-02 01:33N 47°16' W 002°36'4 4.0
2016-Feb-02 00:33N 47°18' W 002°31'1 0.7
2016-Feb-01 23:33N 47°18' W 002°31'8 8.5
2016-Feb-01 22:33N 47°13' W 002°41'16 2.0
2016-Feb-01 14:33N 47°03' W 002°60'4 1.0
2016-Feb-01 10:23N 47°08' W 003°01'3 2.1
2016-Feb-01 09:12N 47°05' W 002°59'2 2.5
2016-Feb-01 08:33N 47°04' W 002°58'3 2.5
2016-Feb-01 07:33N 47°02' W 002°57'3 2.9
2016-Feb-01 06:32N 46°59' W 002°55'2 2.4
2016-Feb-01 05:33N 46°57' W 002°53'11 0.6
2016-Jan-31 11:27N 47°06' W 003°01'  
Track history (hours):
 
Tides and Currents Weather Stations Pressure Air Temp Water Temp Dewpoint Dewpoint Depression Visibility Wind Speed Wind Dir Waves Ship Positions

F/V Moorea

Last reported at 2016-Feb-09 20:10 UTC. Time now 2016-Feb-10 02:40 UTC.
Position N 47°18' W 002°31'.

Length 18 m.

Type: Fishing. MMSI: 228239900.

Date/timePositionNaut miles runAvg speedWind from/ knotsBaromVisibWave heightAir tempDewpointWater temp
2016-Feb-09 20:10N 47°18' W 002°31'0 0.0
2016-Feb-09 19:33N 47°18' W 002°31'0 0.0
2016-Feb-09 18:33N 47°18' W 002°31'0 0.0
2016-Feb-09 16:19N 47°18' W 002°31'0 0.0
2016-Feb-09 15:30N 47°18' W 002°31'0 0.0
2016-Feb-09 14:22N 47°18' W 002°31'  
2016-Feb-06 09:23N 47°18' W 002°31'0 0.0
2016-Feb-06 08:33N 47°18' W 002°31'0 0.0
2016-Feb-06 07:32N 47°18' W 002°31'0 0.0
2016-Feb-06 06:32N 47°18' W 002°31'0 0.0
2016-Feb-06 05:33N 47°18' W 002°31'0 0.0
2016-Feb-06 04:31N 47°18' W 002°31'0 0.0
2016-Feb-06 03:33N 47°18' W 002°31'0 0.0
2016-Feb-06 02:34N 47°18' W 002°31'0 0.4
2016-Feb-06 01:33N 47°18' W 002°31'7 7.0
2016-Feb-06 00:33N 47°12' W 002°35'7 0.2
2016-Feb-04 04:16N 47°06' W 002°40'7 9.5
2016-Feb-04 03:33N 47°12' W 002°37'7 6.9
2016-Feb-04 02:33N 47°18' W 002°31'0 0.0
2016-Feb-04 01:32N 47°18' W 002°31'4 3.6
2016-Feb-04 00:33N 47°19' W 002°36'11 0.2
2016-Feb-02 02:33N 47°09' W 002°44'9 9.3
2016-Feb-02 01:33N 47°16' W 002°36'4 4.0
2016-Feb-02 00:33N 47°18' W 002°31'1 0.7
2016-Feb-01 23:33N 47°18' W 002°31'8 8.5
2016-Feb-01 22:33N 47°13' W 002°41'16 2.0
2016-Feb-01 14:33N 47°03' W 002°60'4 1.0
2016-Feb-01 10:23N 47°08' W 003°01'3 2.1
2016-Feb-01 09:12N 47°05' W 002°59'2 2.5
2016-Feb-01 08:33N 47°04' W 002°58'3 2.5
2016-Feb-01 07:33N 47°02' W 002°57'3 2.9
2016-Feb-01 06:32N 46°59' W 002°55'2 2.4
2016-Feb-01 05:33N 46°57' W 002°53'11 0.6
2016-Jan-31 11:27N 47°06' W 003°01'  

Dump ship's entire track history